sensor_id;sensor_type;location;lat;lon;timestamp;temperature;humidity
6377;DHT22;3221;48.858;10.128;2022-12-07T00:01:27;2.20;99.90
6377;DHT22;3221;48.858;10.128;2022-12-07T00:03:56;2.10;99.90
6377;DHT22;3221;48.858;10.128;2022-12-07T00:06:34;2.10;99.90
6377;DHT22;3221;48.858;10.128;2022-12-07T00:09:01;2.00;99.90
6377;DHT22;3221;48.858;10.128;2022-12-07T00:11:28;2.00;99.90
6377;DHT22;3221;48.858;10.128;2022-12-07T00:13:58;2.00;99.90
6377;DHT22;3221;48.858;10.128;2022-12-07T00:16:28;2.00;99.90
6377;DHT22;3221;48.858;10.128;2022-12-07T00:18:55;2.10;99.90
6377;DHT22;3221;48.858;10.128;2022-12-07T00:21:24;2.00;99.90
6377;DHT22;3221;48.858;10.128;2022-12-07T00:23:52;2.10;99.90
6377;DHT22;3221;48.858;10.128;2022-12-07T00:26:28;2.00;99.90
6377;DHT22;3221;48.858;10.128;2022-12-07T00:29:01;2.00;99.90
6377;DHT22;3221;48.858;10.128;2022-12-07T00:31:32;2.00;99.90
6377;DHT22;3221;48.858;10.128;2022-12-07T00:34:00;2.00;99.90
6377;DHT22;3221;48.858;10.128;2022-12-07T00:36:27;1.90;99.90
6377;DHT22;3221;48.858;10.128;2022-12-07T00:38:56;2.00;99.90
6377;DHT22;3221;48.858;10.128;2022-12-07T00:41:25;2.10;99.90
6377;DHT22;3221;48.858;10.128;2022-12-07T00:43:52;2.10;99.90
6377;DHT22;3221;48.858;10.128;2022-12-07T00:46:20;2.00;99.90
6377;DHT22;3221;48.858;10.128;2022-12-07T00:48:48;2.00;99.90
6377;DHT22;3221;48.858;10.128;2022-12-07T00:51:17;2.00;99.90
6377;DHT22;3221;48.858;10.128;2022-12-07T00:53:45;2.00;99.90
6377;DHT22;3221;48.858;10.128;2022-12-07T00:56:17;2.00;99.90
6377;DHT22;3221;48.858;10.128;2022-12-07T00:58:56;2.00;99.90
6377;DHT22;3221;48.858;10.128;2022-12-07T01:01:24;2.00;99.90
6377;DHT22;3221;48.858;10.128;2022-12-07T01:03:52;2.00;99.90
6377;DHT22;3221;48.858;10.128;2022-12-07T01:06:20;2.10;99.90
6377;DHT22;3221;48.858;10.128;2022-12-07T01:08:48;2.00;99.90
6377;DHT22;3221;48.858;10.128;2022-12-07T01:11:17;2.10;99.90
6377;DHT22;3221;48.858;10.128;2022-12-07T01:13:45;2.10;99.90
6377;DHT22;3221;48.858;10.128;2022-12-07T01:16:14;2.00;99.90
6377;DHT22;3221;48.858;10.128;2022-12-07T01:18:42;2.00;99.90
6377;DHT22;3221;48.858;10.128;2022-12-07T01:21:16;2.10;99.90
6377;DHT22;3221;48.858;10.128;2022-12-07T01:23:43;2.20;99.90
6377;DHT22;3221;48.858;10.128;2022-12-07T01:26:12;2.10;99.90
6377;DHT22;3221;48.858;10.128;2022-12-07T01:28:39;2.10;99.90
6377;DHT22;3221;48.858;10.128;2022-12-07T01:31:12;2.20;99.90
6377;DHT22;3221;48.858;10.128;2022-12-07T01:33:43;2.40;99.90
6377;DHT22;3221;48.858;10.128;2022-12-07T01:36:24;2.20;99.90
6377;DHT22;3221;48.858;10.128;2022-12-07T01:38:56;2.10;99.90
6377;DHT22;3221;48.858;10.128;2022-12-07T01:41:26;2.20;99.90
6377;DHT22;3221;48.858;10.128;2022-12-07T01:44:07;2.20;99.90
6377;DHT22;3221;48.858;10.128;2022-12-07T01:46:34;2.10;99.90
6377;DHT22;3221;48.858;10.128;2022-12-07T01:49:04;2.00;99.90
6377;DHT22;3221;48.858;10.128;2022-12-07T01:51:33;2.10;99.90
6377;DHT22;3221;48.858;10.128;2022-12-07T01:54:00;2.00;99.90
6377;DHT22;3221;48.858;10.128;2022-12-07T01:56:28;2.00;99.90
6377;DHT22;3221;48.858;10.128;2022-12-07T01:58:56;2.00;99.90
6377;DHT22;3221;48.858;10.128;2022-12-07T02:01:25;1.90;99.90
6377;DHT22;3221;48.858;10.128;2022-12-07T02:03:52;1.90;99.90
6377;DHT22;3221;48.858;10.128;2022-12-07T02:06:22;1.90;99.90
6377;DHT22;3221;48.858;10.128;2022-12-07T02:08:50;2.00;99.90
6377;DHT22;3221;48.858;10.128;2022-12-07T02:11:17;2.00;99.90
6377;DHT22;3221;48.858;10.128;2022-12-07T02:13:45;2.00;99.90
6377;DHT22;3221;48.858;10.128;2022-12-07T02:16:31;2.00;99.90
6377;DHT22;3221;48.858;10.128;2022-12-07T02:28:19;1.90;99.90
6377;DHT22;3221;48.858;10.128;2022-12-07T02:30:50;2.00;99.90
6377;DHT22;3221;48.858;10.128;2022-12-07T02:33:24;2.00;99.90
6377;DHT22;3221;48.858;10.128;2022-12-07T02:35:59;1.90;99.90
6377;DHT22;3221;48.858;10.128;2022-12-07T02:38:37;1.90;99.90
6377;DHT22;3221;48.858;10.128;2022-12-07T02:41:29;1.90;99.90
6377;DHT22;3221;48.858;10.128;2022-12-07T02:43:57;2.00;99.90
6377;DHT22;3221;48.858;10.128;2022-12-07T02:46:30;2.00;99.90
6377;DHT22;3221;48.858;10.128;2022-12-07T02:48:58;2.00;99.90
6377;DHT22;3221;48.858;10.128;2022-12-07T02:51:30;1.90;99.90
6377;DHT22;3221;48.858;10.128;2022-12-07T02:53:58;1.90;99.90
6377;DHT22;3221;48.858;10.128;2022-12-07T03:04:52;2.00;99.90
6377;DHT22;3221;48.858;10.128;2022-12-07T03:10:31;1.90;99.90
6377;DHT22;3221;48.858;10.128;2022-12-07T03:13:04;2.00;99.90
6377;DHT22;3221;48.858;10.128;2022-12-07T03:18:23;1.90;99.90
6377;DHT22;3221;48.858;10.128;2022-12-07T03:20:53;1.90;99.90
6377;DHT22;3221;48.858;10.128;2022-12-07T03:23:23;1.90;99.90
6377;DHT22;3221;48.858;10.128;2022-12-07T03:25:56;1.90;99.90
6377;DHT22;3221;48.858;10.128;2022-12-07T03:28:32;1.90;99.90
6377;DHT22;3221;48.858;10.128;2022-12-07T03:31:20;1.90;99.90
6377;DHT22;3221;48.858;10.128;2022-12-07T03:39:41;1.80;99.90
6377;DHT22;3221;48.858;10.128;2022-12-07T03:42:11;1.90;99.90
6377;DHT22;3221;48.858;10.128;2022-12-07T03:44:38;1.80;99.90
6377;DHT22;3221;48.858;10.128;2022-12-07T03:47:13;1.80;99.90
6377;DHT22;3221;48.858;10.128;2022-12-07T03:49:58;1.80;99.90
6377;DHT22;3221;48.858;10.128;2022-12-07T03:57:36;1.80;99.90
6377;DHT22;3221;48.858;10.128;2022-12-07T04:00:06;1.80;99.90
6377;DHT22;3221;48.858;10.128;2022-12-07T04:02:38;1.80;99.90
6377;DHT22;3221;48.858;10.128;2022-12-07T04:05:05;1.90;99.90
6377;DHT22;3221;48.858;10.128;2022-12-07T04:07:32;1.80;99.90
6377;DHT22;3221;48.858;10.128;2022-12-07T04:09:59;1.90;99.90
6377;DHT22;3221;48.858;10.128;2022-12-07T04:12:27;1.80;99.90
6377;DHT22;3221;48.858;10.128;2022-12-07T04:14:54;1.80;99.90
6377;DHT22;3221;48.858;10.128;2022-12-07T04:17:20;1.80;99.90
6377;DHT22;3221;48.858;10.128;2022-12-07T04:19:47;1.80;99.90
6377;DHT22;3221;48.858;10.128;2022-12-07T04:22:14;1.80;99.90
6377;DHT22;3221;48.858;10.128;2022-12-07T04:24:41;1.90;99.90
6377;DHT22;3221;48.858;10.128;2022-12-07T04:27:08;1.80;99.90
6377;DHT22;3221;48.858;10.128;2022-12-07T04:29:35;1.80;99.90
6377;DHT22;3221;48.858;10.128;2022-12-07T04:32:01;1.90;99.90
6377;DHT22;3221;48.858;10.128;2022-12-07T04:34:28;1.80;99.90
6377;DHT22;3221;48.858;10.128;2022-12-07T04:36:55;1.90;99.90
6377;DHT22;3221;48.858;10.128;2022-12-07T04:39:27;1.80;99.90
6377;DHT22;3221;48.858;10.128;2022-12-07T04:41:55;1.80;99.90
6377;DHT22;3221;48.858;10.128;2022-12-07T04:44:23;1.80;99.90
6377;DHT22;3221;48.858;10.128;2022-12-07T04:46:50;1.80;99.90
6377;DHT22;3221;48.858;10.128;2022-12-07T04:49:18;1.90;99.90
6377;DHT22;3221;48.858;10.128;2022-12-07T04:51:46;2.10;99.90
6377;DHT22;3221;48.858;10.128;2022-12-07T04:54:15;2.10;99.90
6377;DHT22;3221;48.858;10.128;2022-12-07T04:56:42;2.20;99.90
6377;DHT22;3221;48.858;10.128;2022-12-07T04:59:11;2.10;99.90
6377;DHT22;3221;48.858;10.128;2022-12-07T05:01:38;2.10;99.90
6377;DHT22;3221;48.858;10.128;2022-12-07T05:04:05;2.10;99.90
6377;DHT22;3221;48.858;10.128;2022-12-07T05:06:33;2.00;99.90
6377;DHT22;3221;48.858;10.128;2022-12-07T05:09:00;2.00;99.90
6377;DHT22;3221;48.858;10.128;2022-12-07T05:11:27;2.20;99.90
6377;DHT22;3221;48.858;10.128;2022-12-07T05:16:34;2.10;99.90
6377;DHT22;3221;48.858;10.128;2022-12-07T05:19:02;1.90;99.90
6377;DHT22;3221;48.858;10.128;2022-12-07T05:21:29;1.80;99.90
6377;DHT22;3221;48.858;10.128;2022-12-07T05:23:56;1.80;99.90
6377;DHT22;3221;48.858;10.128;2022-12-07T05:26:23;1.70;99.90
6377;DHT22;3221;48.858;10.128;2022-12-07T05:28:54;1.70;99.90
6377;DHT22;3221;48.858;10.128;2022-12-07T05:31:22;1.70;99.90
6377;DHT22;3221;48.858;10.128;2022-12-07T05:33:49;1.70;99.90
6377;DHT22;3221;48.858;10.128;2022-12-07T05:36:16;1.80;99.90
6377;DHT22;3221;48.858;10.128;2022-12-07T05:38:43;1.60;99.90
6377;DHT22;3221;48.858;10.128;2022-12-07T05:41:13;1.60;99.90
6377;DHT22;3221;48.858;10.128;2022-12-07T05:44:05;1.60;99.90
6377;DHT22;3221;48.858;10.128;2022-12-07T05:46:32;1.60;99.90
6377;DHT22;3221;48.858;10.128;2022-12-07T05:48:59;1.60;99.90
6377;DHT22;3221;48.858;10.128;2022-12-07T05:51:27;1.60;99.90
6377;DHT22;3221;48.858;10.128;2022-12-07T05:53:53;1.60;99.90
6377;DHT22;3221;48.858;10.128;2022-12-07T05:56:20;1.60;99.90
6377;DHT22;3221;48.858;10.128;2022-12-07T05:58:47;1.60;99.90
6377;DHT22;3221;48.858;10.128;2022-12-07T06:01:32;1.60;99.90
6377;DHT22;3221;48.858;10.128;2022-12-07T06:03:59;1.60;99.90
6377;DHT22;3221;48.858;10.128;2022-12-07T06:06:26;1.50;99.90
6377;DHT22;3221;48.858;10.128;2022-12-07T06:08:53;1.60;99.90
6377;DHT22;3221;48.858;10.128;2022-12-07T06:11:20;1.50;99.90
6377;DHT22;3221;48.858;10.128;2022-12-07T06:14:19;1.50;99.90
6377;DHT22;3221;48.858;10.128;2022-12-07T06:16:46;1.50;99.90
6377;DHT22;3221;48.858;10.128;2022-12-07T06:19:13;1.50;99.90
6377;DHT22;3221;48.858;10.128;2022-12-07T06:21:39;1.60;99.90
6377;DHT22;3221;48.858;10.128;2022-12-07T06:24:07;1.50;99.90
6377;DHT22;3221;48.858;10.128;2022-12-07T06:26:34;1.50;99.90
6377;DHT22;3221;48.858;10.128;2022-12-07T06:29:00;1.60;99.90
6377;DHT22;3221;48.858;10.128;2022-12-07T06:31:27;1.60;99.90
6377;DHT22;3221;48.858;10.128;2022-12-07T06:34:02;1.70;99.90
6377;DHT22;3221;48.858;10.128;2022-12-07T06:36:29;1.70;99.90
6377;DHT22;3221;48.858;10.128;2022-12-07T06:38:56;1.70;99.90
6377;DHT22;3221;48.858;10.128;2022-12-07T06:41:24;1.60;99.90
6377;DHT22;3221;48.858;10.128;2022-12-07T06:43:51;1.60;99.90
6377;DHT22;3221;48.858;10.128;2022-12-07T06:46:22;1.60;99.90
6377;DHT22;3221;48.858;10.128;2022-12-07T06:48:49;1.80;99.90
6377;DHT22;3221;48.858;10.128;2022-12-07T06:51:16;1.80;99.90
6377;DHT22;3221;48.858;10.128;2022-12-07T06:53:43;1.80;99.90
6377;DHT22;3221;48.858;10.128;2022-12-07T06:56:10;1.80;99.90
6377;DHT22;3221;48.858;10.128;2022-12-07T06:58:37;1.70;99.90
6377;DHT22;3221;48.858;10.128;2022-12-07T07:01:09;1.70;99.90
6377;DHT22;3221;48.858;10.128;2022-12-07T07:03:37;1.80;99.90
6377;DHT22;3221;48.858;10.128;2022-12-07T07:06:04;1.80;99.90
6377;DHT22;3221;48.858;10.128;2022-12-07T07:08:31;1.80;99.90
6377;DHT22;3221;48.858;10.128;2022-12-07T07:10:58;1.90;99.90
6377;DHT22;3221;48.858;10.128;2022-12-07T07:13:26;1.90;99.90
6377;DHT22;3221;48.858;10.128;2022-12-07T07:15:53;1.70;99.90
6377;DHT22;3221;48.858;10.128;2022-12-07T07:18:19;1.70;99.90
6377;DHT22;3221;48.858;10.128;2022-12-07T07:20:46;1.90;99.90
6377;DHT22;3221;48.858;10.128;2022-12-07T07:23:13;1.80;99.90
6377;DHT22;3221;48.858;10.128;2022-12-07T07:25:40;1.80;99.90
6377;DHT22;3221;48.858;10.128;2022-12-07T07:28:07;1.80;99.90
6377;DHT22;3221;48.858;10.128;2022-12-07T07:30:34;1.80;99.90
6377;DHT22;3221;48.858;10.128;2022-12-07T07:33:02;1.70;99.90
6377;DHT22;3221;48.858;10.128;2022-12-07T07:35:30;1.70;99.90
6377;DHT22;3221;48.858;10.128;2022-12-07T07:37:58;1.80;99.90
6377;DHT22;3221;48.858;10.128;2022-12-07T07:40:25;1.80;99.90
6377;DHT22;3221;48.858;10.128;2022-12-07T07:42:53;1.80;99.90
6377;DHT22;3221;48.858;10.128;2022-12-07T07:45:22;1.80;99.90
6377;DHT22;3221;48.858;10.128;2022-12-07T07:47:49;1.80;99.90
6377;DHT22;3221;48.858;10.128;2022-12-07T07:50:16;1.80;99.90
6377;DHT22;3221;48.858;10.128;2022-12-07T07:52:44;1.80;99.90
6377;DHT22;3221;48.858;10.128;2022-12-07T07:55:11;1.70;99.90
6377;DHT22;3221;48.858;10.128;2022-12-07T07:57:38;1.70;99.90
6377;DHT22;3221;48.858;10.128;2022-12-07T08:00:11;1.80;99.90
6377;DHT22;3221;48.858;10.128;2022-12-07T08:02:41;1.80;99.90
6377;DHT22;3221;48.858;10.128;2022-12-07T08:05:10;1.70;99.90
6377;DHT22;3221;48.858;10.128;2022-12-07T08:07:38;1.70;99.90
6377;DHT22;3221;48.858;10.128;2022-12-07T08:10:06;1.80;99.90
6377;DHT22;3221;48.858;10.128;2022-12-07T08:12:36;1.80;99.90
6377;DHT22;3221;48.858;10.128;2022-12-07T08:15:04;1.80;99.90
6377;DHT22;3221;48.858;10.128;2022-12-07T08:17:31;1.80;99.90
6377;DHT22;3221;48.858;10.128;2022-12-07T08:19:59;1.70;99.90
6377;DHT22;3221;48.858;10.128;2022-12-07T08:22:27;1.70;99.90
6377;DHT22;3221;48.858;10.128;2022-12-07T08:24:53;1.70;99.90
6377;DHT22;3221;48.858;10.128;2022-12-07T08:27:20;1.70;99.90
6377;DHT22;3221;48.858;10.128;2022-12-07T08:29:47;1.80;99.90
6377;DHT22;3221;48.858;10.128;2022-12-07T08:32:14;2.00;99.90
6377;DHT22;3221;48.858;10.128;2022-12-07T08:34:41;2.10;99.90
6377;DHT22;3221;48.858;10.128;2022-12-07T08:37:07;2.00;99.90
6377;DHT22;3221;48.858;10.128;2022-12-07T08:39:34;1.90;99.90
6377;DHT22;3221;48.858;10.128;2022-12-07T08:42:01;1.80;99.90
6377;DHT22;3221;48.858;10.128;2022-12-07T08:44:28;1.80;99.90
6377;DHT22;3221;48.858;10.128;2022-12-07T08:47:02;1.80;99.90
6377;DHT22;3221;48.858;10.128;2022-12-07T08:49:38;1.90;99.90
6377;DHT22;3221;48.858;10.128;2022-12-07T08:52:06;1.90;99.90
6377;DHT22;3221;48.858;10.128;2022-12-07T08:54:35;1.80;99.90
6377;DHT22;3221;48.858;10.128;2022-12-07T08:57:03;1.90;99.90
6377;DHT22;3221;48.858;10.128;2022-12-07T08:59:31;1.90;99.90
6377;DHT22;3221;48.858;10.128;2022-12-07T09:02:00;1.80;99.90
6377;DHT22;3221;48.858;10.128;2022-12-07T09:04:27;1.90;99.90
6377;DHT22;3221;48.858;10.128;2022-12-07T09:06:54;1.90;99.90
6377;DHT22;3221;48.858;10.128;2022-12-07T09:09:21;1.90;99.90
6377;DHT22;3221;48.858;10.128;2022-12-07T09:11:48;1.90;99.90
6377;DHT22;3221;48.858;10.128;2022-12-07T09:14:15;1.90;99.90
6377;DHT22;3221;48.858;10.128;2022-12-07T09:16:42;1.80;99.90
6377;DHT22;3221;48.858;10.128;2022-12-07T09:19:09;1.70;99.90
6377;DHT22;3221;48.858;10.128;2022-12-07T09:21:35;1.70;99.90
6377;DHT22;3221;48.858;10.128;2022-12-07T09:24:02;1.70;99.90
6377;DHT22;3221;48.858;10.128;2022-12-07T09:26:29;1.90;99.90
6377;DHT22;3221;48.858;10.128;2022-12-07T09:28:56;1.80;99.90
6377;DHT22;3221;48.858;10.128;2022-12-07T09:31:23;1.90;99.90
6377;DHT22;3221;48.858;10.128;2022-12-07T09:33:59;1.90;99.90
6377;DHT22;3221;48.858;10.128;2022-12-07T09:36:28;2.00;99.90
6377;DHT22;3221;48.858;10.128;2022-12-07T09:38:55;1.90;99.90
6377;DHT22;3221;48.858;10.128;2022-12-07T09:41:23;1.90;99.90
6377;DHT22;3221;48.858;10.128;2022-12-07T09:43:51;1.90;99.90
6377;DHT22;3221;48.858;10.128;2022-12-07T09:46:19;2.00;99.90
6377;DHT22;3221;48.858;10.128;2022-12-07T09:48:48;2.00;99.90
6377;DHT22;3221;48.858;10.128;2022-12-07T09:51:19;1.90;99.90
6377;DHT22;3221;48.858;10.128;2022-12-07T09:53:52;2.00;99.90
6377;DHT22;3221;48.858;10.128;2022-12-07T09:56:20;2.00;99.90
6377;DHT22;3221;48.858;10.128;2022-12-07T09:58:48;1.90;99.90
6377;DHT22;3221;48.858;10.128;2022-12-07T10:01:18;1.90;99.90
6377;DHT22;3221;48.858;10.128;2022-12-07T10:03:59;1.90;99.90
6377;DHT22;3221;48.858;10.128;2022-12-07T10:06:27;2.10;99.90
6377;DHT22;3221;48.858;10.128;2022-12-07T10:08:54;2.20;99.90
6377;DHT22;3221;48.858;10.128;2022-12-07T10:11:21;2.10;99.90
6377;DHT22;3221;48.858;10.128;2022-12-07T10:13:51;2.00;99.90
6377;DHT22;3221;48.858;10.128;2022-12-07T10:16:38;2.00;99.90
6377;DHT22;3221;48.858;10.128;2022-12-07T10:19:29;1.90;99.90
6377;DHT22;3221;48.858;10.128;2022-12-07T10:22:10;1.90;99.90
6377;DHT22;3221;48.858;10.128;2022-12-07T10:24:39;1.90;99.90
6377;DHT22;3221;48.858;10.128;2022-12-07T10:27:22;2.10;99.90
6377;DHT22;3221;48.858;10.128;2022-12-07T10:29:53;2.00;99.90
6377;DHT22;3221;48.858;10.128;2022-12-07T10:34:46;2.00;99.90
6377;DHT22;3221;48.858;10.128;2022-12-07T10:37:27;2.00;99.90
6377;DHT22;3221;48.858;10.128;2022-12-07T10:39:57;2.10;99.90
6377;DHT22;3221;48.858;10.128;2022-12-07T10:42:29;2.10;99.90
6377;DHT22;3221;48.858;10.128;2022-12-07T10:45:14;2.10;99.90
6377;DHT22;3221;48.858;10.128;2022-12-07T10:47:51;2.20;99.90
6377;DHT22;3221;48.858;10.128;2022-12-07T10:50:44;2.20;99.90
6377;DHT22;3221;48.858;10.128;2022-12-07T10:56:10;2.20;99.90
6377;DHT22;3221;48.858;10.128;2022-12-07T11:09:57;2.10;99.90
6377;DHT22;3221;48.858;10.128;2022-12-07T11:13:05;2.20;99.90
6377;DHT22;3221;48.858;10.128;2022-12-07T11:16:01;2.20;99.90
6377;DHT22;3221;48.858;10.128;2022-12-07T11:18:40;2.20;99.90
6377;DHT22;3221;48.858;10.128;2022-12-07T11:24:06;2.20;99.90
6377;DHT22;3221;48.858;10.128;2022-12-07T11:27:10;2.20;99.90
6377;DHT22;3221;48.858;10.128;2022-12-07T11:33:01;2.20;99.90
6377;DHT22;3221;48.858;10.128;2022-12-07T11:38:43;2.10;99.90
6377;DHT22;3221;48.858;10.128;2022-12-07T11:41:11;2.20;99.90
6377;DHT22;3221;48.858;10.128;2022-12-07T11:44:06;2.20;99.90
6377;DHT22;3221;48.858;10.128;2022-12-07T11:49:17;2.20;99.90
6377;DHT22;3221;48.858;10.128;2022-12-07T11:51:49;2.20;99.90
6377;DHT22;3221;48.858;10.128;2022-12-07T11:54:30;2.10;99.90
6377;DHT22;3221;48.858;10.128;2022-12-07T11:57:03;2.10;99.90
6377;DHT22;3221;48.858;10.128;2022-12-07T11:59:40;2.20;99.90
6377;DHT22;3221;48.858;10.128;2022-12-07T12:02:16;2.20;99.90
6377;DHT22;3221;48.858;10.128;2022-12-07T12:04:59;2.20;99.90
6377;DHT22;3221;48.858;10.128;2022-12-07T12:07:29;2.20;99.90
6377;DHT22;3221;48.858;10.128;2022-12-07T12:10:24;2.20;99.90
6377;DHT22;3221;48.858;10.128;2022-12-07T12:13:21;2.20;99.90
6377;DHT22;3221;48.858;10.128;2022-12-07T12:19:32;2.20;99.90
6377;DHT22;3221;48.858;10.128;2022-12-07T12:22:20;2.10;99.90
6377;DHT22;3221;48.858;10.128;2022-12-07T12:24:53;2.10;99.90
6377;DHT22;3221;48.858;10.128;2022-12-07T12:27:27;2.00;99.90
6377;DHT22;3221;48.858;10.128;2022-12-07T12:29:59;2.00;99.90
6377;DHT22;3221;48.858;10.128;2022-12-07T12:32:36;2.00;99.90
6377;DHT22;3221;48.858;10.128;2022-12-07T12:35:35;2.10;99.90
6377;DHT22;3221;48.858;10.128;2022-12-07T12:38:34;2.20;99.90
6377;DHT22;3221;48.858;10.128;2022-12-07T12:54:35;2.30;99.90
6377;DHT22;3221;48.858;10.128;2022-12-07T12:57:28;2.20;99.90
6377;DHT22;3221;48.858;10.128;2022-12-07T12:59:56;2.30;99.90
6377;DHT22;3221;48.858;10.128;2022-12-07T13:02:27;2.20;99.90
6377;DHT22;3221;48.858;10.128;2022-12-07T13:26:18;2.10;99.90
6377;DHT22;3221;48.858;10.128;2022-12-07T13:29:09;2.10;99.90
6377;DHT22;3221;48.858;10.128;2022-12-07T13:31:39;2.10;99.90
6377;DHT22;3221;48.858;10.128;2022-12-07T13:34:34;2.30;99.90
6377;DHT22;3221;48.858;10.128;2022-12-07T13:39:46;2.20;99.90
6377;DHT22;3221;48.858;10.128;2022-12-07T13:42:22;2.20;99.90
6377;DHT22;3221;48.858;10.128;2022-12-07T13:44:50;2.30;99.90
6377;DHT22;3221;48.858;10.128;2022-12-07T13:49:54;2.10;99.90
6377;DHT22;3221;48.858;10.128;2022-12-07T13:52:29;2.10;99.90
6377;DHT22;3221;48.858;10.128;2022-12-07T13:57:35;2.20;99.90
6377;DHT22;3221;48.858;10.128;2022-12-07T14:00:06;2.20;99.90
6377;DHT22;3221;48.858;10.128;2022-12-07T14:02:55;2.20;99.90
6377;DHT22;3221;48.858;10.128;2022-12-07T14:05:29;2.20;99.90
6377;DHT22;3221;48.858;10.128;2022-12-07T14:07:58;2.20;99.90
6377;DHT22;3221;48.858;10.128;2022-12-07T14:10:30;2.20;99.90
6377;DHT22;3221;48.858;10.128;2022-12-07T14:12:57;2.20;99.90
6377;DHT22;3221;48.858;10.128;2022-12-07T14:15:31;2.20;99.90
6377;DHT22;3221;48.858;10.128;2022-12-07T14:17:59;2.30;99.90
6377;DHT22;3221;48.858;10.128;2022-12-07T14:20:38;2.30;99.90
6377;DHT22;3221;48.858;10.128;2022-12-07T14:23:21;2.30;99.90
6377;DHT22;3221;48.858;10.128;2022-12-07T14:25:51;2.20;99.90
6377;DHT22;3221;48.858;10.128;2022-12-07T14:28:44;2.20;99.90
6377;DHT22;3221;48.858;10.128;2022-12-07T14:31:17;2.10;99.90
6377;DHT22;3221;48.858;10.128;2022-12-07T14:33:59;2.20;99.90
6377;DHT22;3221;48.858;10.128;2022-12-07T14:36:26;2.30;99.90
6377;DHT22;3221;48.858;10.128;2022-12-07T14:38:53;2.30;99.90
6377;DHT22;3221;48.858;10.128;2022-12-07T14:41:22;2.30;99.90
6377;DHT22;3221;48.858;10.128;2022-12-07T14:44:11;2.30;99.90
6377;DHT22;3221;48.858;10.128;2022-12-07T14:46:58;2.20;99.90
6377;DHT22;3221;48.858;10.128;2022-12-07T14:49:45;2.30;99.90
6377;DHT22;3221;48.858;10.128;2022-12-07T14:52:49;2.20;99.90
6377;DHT22;3221;48.858;10.128;2022-12-07T14:55:30;2.20;99.90
6377;DHT22;3221;48.858;10.128;2022-12-07T14:57:58;2.20;99.90
6377;DHT22;3221;48.858;10.128;2022-12-07T15:00:27;2.10;99.90
6377;DHT22;3221;48.858;10.128;2022-12-07T15:02:55;2.10;99.90
6377;DHT22;3221;48.858;10.128;2022-12-07T15:05:22;2.10;99.90
6377;DHT22;3221;48.858;10.128;2022-12-07T15:07:50;2.20;99.90
6377;DHT22;3221;48.858;10.128;2022-12-07T15:10:23;2.20;99.90
6377;DHT22;3221;48.858;10.128;2022-12-07T15:12:50;2.20;99.90
6377;DHT22;3221;48.858;10.128;2022-12-07T15:15:17;2.20;99.90
6377;DHT22;3221;48.858;10.128;2022-12-07T15:17:44;2.20;99.90
6377;DHT22;3221;48.858;10.128;2022-12-07T15:20:14;2.20;99.90
6377;DHT22;3221;48.858;10.128;2022-12-07T15:22:41;2.20;99.90
6377;DHT22;3221;48.858;10.128;2022-12-07T15:25:09;2.10;99.90
6377;DHT22;3221;48.858;10.128;2022-12-07T15:27:38;2.10;99.90
6377;DHT22;3221;48.858;10.128;2022-12-07T15:30:06;2.10;99.90
6377;DHT22;3221;48.858;10.128;2022-12-07T15:32:33;2.10;99.90
6377;DHT22;3221;48.858;10.128;2022-12-07T15:35:00;2.10;99.90
6377;DHT22;3221;48.858;10.128;2022-12-07T15:37:28;2.10;99.90
6377;DHT22;3221;48.858;10.128;2022-12-07T15:39:54;2.10;99.90
6377;DHT22;3221;48.858;10.128;2022-12-07T15:42:21;2.10;99.90
6377;DHT22;3221;48.858;10.128;2022-12-07T15:44:48;2.00;99.90
6377;DHT22;3221;48.858;10.128;2022-12-07T15:47:33;2.20;99.90
6377;DHT22;3221;48.858;10.128;2022-12-07T15:50:22;2.20;99.90
6377;DHT22;3221;48.858;10.128;2022-12-07T15:52:49;2.20;99.90
6377;DHT22;3221;48.858;10.128;2022-12-07T15:55:16;2.20;99.90
6377;DHT22;3221;48.858;10.128;2022-12-07T15:57:43;2.30;99.90
6377;DHT22;3221;48.858;10.128;2022-12-07T16:00:10;2.20;99.90
6377;DHT22;3221;48.858;10.128;2022-12-07T16:02:37;2.10;99.90
6377;DHT22;3221;48.858;10.128;2022-12-07T16:05:06;2.10;99.90
6377;DHT22;3221;48.858;10.128;2022-12-07T16:07:33;2.20;99.90
6377;DHT22;3221;48.858;10.128;2022-12-07T16:10:00;2.20;99.90
6377;DHT22;3221;48.858;10.128;2022-12-07T16:12:26;2.20;99.90
6377;DHT22;3221;48.858;10.128;2022-12-07T16:14:53;2.20;99.90
6377;DHT22;3221;48.858;10.128;2022-12-07T16:17:20;2.20;99.90
6377;DHT22;3221;48.858;10.128;2022-12-07T16:19:47;2.20;99.90
6377;DHT22;3221;48.858;10.128;2022-12-07T16:22:14;2.20;99.90
6377;DHT22;3221;48.858;10.128;2022-12-07T16:24:41;2.20;99.90
6377;DHT22;3221;48.858;10.128;2022-12-07T16:27:07;2.20;99.90
6377;DHT22;3221;48.858;10.128;2022-12-07T16:29:34;2.10;99.90
6377;DHT22;3221;48.858;10.128;2022-12-07T16:32:01;2.10;99.90
6377;DHT22;3221;48.858;10.128;2022-12-07T16:34:28;2.10;99.90
6377;DHT22;3221;48.858;10.128;2022-12-07T16:36:55;2.10;99.90
6377;DHT22;3221;48.858;10.128;2022-12-07T16:39:32;2.10;99.90
6377;DHT22;3221;48.858;10.128;2022-12-07T16:41:59;2.10;99.90
6377;DHT22;3221;48.858;10.128;2022-12-07T16:44:26;2.10;99.90
6377;DHT22;3221;48.858;10.128;2022-12-07T16:46:53;2.20;99.90
6377;DHT22;3221;48.858;10.128;2022-12-07T16:49:20;2.10;99.90
6377;DHT22;3221;48.858;10.128;2022-12-07T16:51:49;2.00;99.90
6377;DHT22;3221;48.858;10.128;2022-12-07T16:54:36;2.00;99.90
6377;DHT22;3221;48.858;10.128;2022-12-07T16:57:03;1.80;99.90
6377;DHT22;3221;48.858;10.128;2022-12-07T16:59:30;2.20;99.90
6377;DHT22;3221;48.858;10.128;2022-12-07T17:01:57;2.10;99.90
6377;DHT22;3221;48.858;10.128;2022-12-07T17:04:23;2.10;99.90
6377;DHT22;3221;48.858;10.128;2022-12-07T17:06:50;2.00;99.90
6377;DHT22;3221;48.858;10.128;2022-12-07T17:09:17;2.00;99.90
6377;DHT22;3221;48.858;10.128;2022-12-07T17:11:47;2.00;99.90
6377;DHT22;3221;48.858;10.128;2022-12-07T17:14:14;2.00;99.90
6377;DHT22;3221;48.858;10.128;2022-12-07T17:17:00;2.00;99.90
6377;DHT22;3221;48.858;10.128;2022-12-07T17:19:27;2.10;99.90
6377;DHT22;3221;48.858;10.128;2022-12-07T17:21:54;2.10;99.90
6377;DHT22;3221;48.858;10.128;2022-12-07T17:24:22;2.00;99.90
6377;DHT22;3221;48.858;10.128;2022-12-07T17:26:49;2.00;99.90
6377;DHT22;3221;48.858;10.128;2022-12-07T17:29:17;2.00;99.90
6377;DHT22;3221;48.858;10.128;2022-12-07T17:31:45;2.20;99.90
6377;DHT22;3221;48.858;10.128;2022-12-07T17:34:17;2.10;99.90
6377;DHT22;3221;48.858;10.128;2022-12-07T17:36:44;2.20;99.90
6377;DHT22;3221;48.858;10.128;2022-12-07T17:39:14;2.30;99.90
6377;DHT22;3221;48.858;10.128;2022-12-07T17:41:41;2.20;99.90
6377;DHT22;3221;48.858;10.128;2022-12-07T17:44:27;2.20;99.90
6377;DHT22;3221;48.858;10.128;2022-12-07T17:46:54;2.20;99.90
6377;DHT22;3221;48.858;10.128;2022-12-07T17:49:24;2.20;99.90
6377;DHT22;3221;48.858;10.128;2022-12-07T17:51:51;2.10;99.90
6377;DHT22;3221;48.858;10.128;2022-12-07T17:54:37;2.40;99.90
6377;DHT22;3221;48.858;10.128;2022-12-07T17:57:03;2.30;99.90
6377;DHT22;3221;48.858;10.128;2022-12-07T17:59:31;2.20;99.90
6377;DHT22;3221;48.858;10.128;2022-12-07T18:01:57;2.20;99.90
6377;DHT22;3221;48.858;10.128;2022-12-07T18:04:24;2.10;99.90
6377;DHT22;3221;48.858;10.128;2022-12-07T18:06:51;2.00;99.90
6377;DHT22;3221;48.858;10.128;2022-12-07T18:09:19;2.10;99.90
6377;DHT22;3221;48.858;10.128;2022-12-07T18:11:47;2.10;99.90
6377;DHT22;3221;48.858;10.128;2022-12-07T18:14:14;2.10;99.90
6377;DHT22;3221;48.858;10.128;2022-12-07T18:16:43;2.10;99.90
6377;DHT22;3221;48.858;10.128;2022-12-07T18:19:12;2.10;99.90